Pine Island, New York
Current Conditions -  °F | °C
As of 3:53 PM on Monday 24 Nov 2014 (Local Time) from KFWN Reporting Station
Few Clouds Few Clouds  
Wind Chill: 68°   Ceiling: Unl
Heat Index: 68°   Visibility: 10mi
Dew Point: 54°   Wind: 12mph
Humidity: 61%   Direction: 210°SSW
Pressure: 29.57"   Gusts: 25mph
Location:  41.3°N, 74.46°W
Report Text: KFWN 242053Z AUTO 21010G22KT 10SM FEW047 20/12 A2957 RMK AO2 SLP011 T02000122 53004
Loading
Personal Weather Stations






























Interactive Weather Map New forecast layout! Learn more

10-Day Weather Forecast

Advertisements
Track Severe Weather on mobile